Time;durP1;ratioP1;P1;durP2;ratioP2;P2;SDS_P1;SDS_P2;PMS_P1;PMS_P2;Temp;Humidity;BMP_temperature;BMP_pressure;BME280_temperature;BME280_humidity;BME280_pressure;Samples;Min_cycle;Max_cycle;Signal;HPM_P1;HPM_P2
2021/05/10 00:00:00;;;;;;;2.43;1.80;;;17.20;69.40;;;;;;4159341;28;20216;-73
2021/05/10 00:02:01;;;;;;;1.73;1.40;;;17.20;69.90;;;;;;4159740;28;20752;-73
2021/05/10 00:04:03;;;;;;;3.33;1.90;;;17.10;70.10;;;;;;4160199;28;20897;-73
2021/05/10 00:06:05;;;;;;;2.33;1.60;;;17.10;70.40;;;;;;4164947;28;20218;-72
2021/05/10 00:08:09;;;;;;;3.70;2.17;;;17.10;70.80;;;;;;4159848;28;20254;-73
2021/05/10 00:10:10;;;;;;;2.93;1.70;;;17.10;71.10;;;;;;4163484;28;20214;-72
2021/05/10 00:12:13;;;;;;;2.80;1.93;;;17.00;71.40;;;;;;4152293;28;20216;-73
2021/05/10 00:14:15;;;;;;;4.37;2.33;;;17.00;71.60;;;;;;4170815;28;20210;-73
2021/05/10 00:16:17;;;;;;;2.83;1.93;;;16.90;72.00;;;;;;4162679;28;20632;-72
2021/05/10 00:18:18;;;;;;;2.73;2.10;;;16.90;72.20;;;;;;4161859;28;20202;-73
2021/05/10 00:20:20;;;;;;;3.03;1.80;;;16.80;72.40;;;;;;4160605;28;20218;-73
2021/05/10 00:22:21;;;;;;;3.07;2.10;;;16.80;72.90;;;;;;4161526;28;20221;-73
2021/05/10 00:24:23;;;;;;;3.47;2.00;;;16.80;73.30;;;;;;4158045;28;20207;-73
2021/05/10 00:26:24;;;;;;;3.90;1.87;;;16.70;73.60;;;;;;4164671;28;20231;-73
2021/05/10 00:28:25;;;;;;;4.83;1.90;;;16.70;73.90;;;;;;4170642;28;20222;-73
2021/05/10 00:30:27;;;;;;;3.00;1.97;;;16.70;74.10;;;;;;4154433;28;20215;-73
2021/05/10 00:32:28;;;;;;;2.60;1.73;;;16.60;74.30;;;;;;4147965;28;20683;-73
2021/05/10 00:34:29;;;;;;;3.57;1.80;;;16.60;74.60;;;;;;4159649;28;20341;-73
2021/05/10 00:36:30;;;;;;;3.53;1.60;;;16.60;74.90;;;;;;4154362;28;20782;-73
2021/05/10 00:38:31;;;;;;;2.40;1.57;;;16.50;75.10;;;;;;4157238;28;20273;-73
2021/05/10 00:40:34;;;;;;;2.67;1.90;;;16.50;75.30;;;;;;4159925;28;20214;-73
2021/05/10 00:42:35;;;;;;;2.80;1.80;;;16.50;75.70;;;;;;4158956;28;20219;-73
2021/05/10 00:44:37;;;;;;;3.20;1.80;;;16.40;75.90;;;;;;4162409;28;20261;-73
2021/05/10 00:46:39;;;;;;;2.10;1.53;;;16.40;76.20;;;;;;4158577;28;20237;-72
2021/05/10 00:48:40;;;;;;;2.37;1.57;;;16.40;76.50;;;;;;4159392;28;20211;-73
2021/05/10 00:50:41;;;;;;;1.70;1.60;;;16.30;76.60;;;;;;4163166;28;20269;-73
2021/05/10 00:52:42;;;;;;;2.30;1.73;;;16.30;76.80;;;;;;4150720;28;20603;-73
2021/05/10 00:54:43;;;;;;;3.97;1.83;;;16.20;77.10;;;;;;4164629;28;20220;-73
2021/05/10 00:56:45;;;;;;;3.23;1.97;;;16.20;77.30;;;;;;4159094;28;20720;-73
2021/05/10 00:58:47;;;;;;;2.00;1.50;;;16.20;77.60;;;;;;4159478;28;20222;-73
2021/05/10 01:00:48;;;;;;;2.50;1.90;;;16.10;77.80;;;;;;4170939;28;20237;-73
2021/05/10 01:02:50;;;;;;;1.67;1.50;;;16.10;78.10;;;;;;4160139;28;20204;-73
2021/05/10 01:04:51;;;;;;;2.80;1.80;;;16.10;78.90;;;;;;4146738;28;20254;-73
2021/05/10 01:06:52;;;;;;;3.33;1.50;;;16.00;78.60;;;;;;4160315;28;20231;-73
2021/05/10 01:08:54;;;;;;;2.07;1.43;;;16.00;79.10;;;;;;4151420;28;20658;-73
2021/05/10 01:10:55;;;;;;;2.40;1.80;;;15.90;79.50;;;;;;4162067;28;20680;-72
2021/05/10 01:12:57;;;;;;;2.50;1.70;;;15.90;79.80;;;;;;4152728;28;20712;-71
2021/05/10 01:14:58;;;;;;;2.67;1.80;;;15.80;80.00;;;;;;4165616;28;20803;-72
2021/05/10 01:16:59;;;;;;;2.63;1.40;;;15.80;80.30;;;;;;4160432;28;20604;-72
2021/05/10 01:19:00;;;;;;;3.27;1.70;;;15.80;80.60;;;;;;4152936;28;20733;-71
2021/05/10 01:21:03;;;;;;;4.00;1.73;;;15.70;80.70;;;;;;4163986;28;20237;-71
2021/05/10 01:23:05;;;;;;;2.50;1.67;;;15.60;81.10;;;;;;4162884;28;20217;-72
2021/05/10 01:25:08;;;;;;;2.93;1.80;;;15.60;81.40;;;;;;4163316;28;20245;-72
2021/05/10 01:27:10;;;;;;;1.70;1.47;;;15.60;81.80;;;;;;4165548;28;20237;-72
2021/05/10 01:29:12;;;;;;;2.97;1.77;;;15.60;82.00;;;;;;4162571;28;20253;-72
2021/05/10 01:31:15;;;;;;;3.33;1.70;;;15.60;82.10;;;;;;4166787;28;20230;-72
2021/05/10 01:33:18;;;;;;;3.17;1.67;;;15.50;82.30;;;;;;4162949;28;20218;-72
2021/05/10 01:35:21;;;;;;;1.97;1.50;;;15.50;82.40;;;;;;4158902;28;20722;-71
2021/05/10 01:37:22;;;;;;;2.27;1.50;;;15.50;82.60;;;;;;4168055;23;20243;-71
2021/05/10 01:39:24;;;;;;;1.93;1.43;;;15.40;82.60;;;;;;4154599;28;20211;-71
2021/05/10 01:41:25;;;;;;;2.30;1.40;;;15.40;82.80;;;;;;4156741;28;20265;-71
2021/05/10 01:43:27;;;;;;;2.80;1.40;;;15.40;82.90;;;;;;4159717;28;20222;-71
2021/05/10 01:45:28;;;;;;;1.93;1.60;;;15.40;83.20;;;;;;4160482;28;20218;-71
2021/05/10 01:47:29;;;;;;;2.37;1.40;;;15.30;83.50;;;;;;4155933;28;20245;-71
2021/05/10 01:49:30;;;;;;;2.67;1.57;;;15.30;83.50;;;;;;4144888;28;20207;-72
2021/05/10 01:51:32;;;;;;;1.93;1.50;;;15.20;83.60;;;;;;4154173;28;20874;-71
2021/05/10 01:53:33;;;;;;;2.10;1.67;;;15.20;84.00;;;;;;4151007;28;20264;-71
2021/05/10 01:55:35;;;;;;;3.77;1.70;;;15.20;84.30;;;;;;4148137;28;20691;-71
2021/05/10 01:57:37;;;;;;;2.20;1.57;;;15.10;84.60;;;;;;4145359;28;20300;-71
2021/05/10 01:59:38;;;;;;;2.40;1.53;;;15.10;84.70;;;;;;4151418;28;20214;-71
2021/05/10 02:01:39;;;;;;;3.77;1.77;;;15.00;84.80;;;;;;4162298;28;20218;-71
2021/05/10 02:03:41;;;;;;;2.00;1.70;;;15.00;85.10;;;;;;4149577;28;20249;-71
2021/05/10 02:05:43;;;;;;;3.07;1.60;;;15.00;85.40;;;;;;4162502;28;20218;-71
2021/05/10 02:07:46;;;;;;;2.17;1.50;;;14.90;85.60;;;;;;4149587;28;20252;-71
2021/05/10 02:09:47;;;;;;;3.20;1.83;;;14.90;86.00;;;;;;4158108;28;20217;-71
2021/05/10 02:11:49;;;;;;;2.20;1.60;;;14.80;86.00;;;;;;4162065;28;20202;-71
2021/05/10 02:13:50;;;;;;;2.90;1.80;;;14.80;86.30;;;;;;4153809;28;20225;-71
2021/05/10 02:15:54;;;;;;;3.40;1.97;;;14.80;86.50;;;;;;4154782;28;20206;-71
2021/05/10 02:17:56;;;;;;;2.70;1.90;;;14.70;86.70;;;;;;4157181;28;20229;-71
2021/05/10 02:19:57;;;;;;;2.00;1.63;;;14.70;87.10;;;;;;4158227;28;20214;-71
2021/05/10 02:21:58;;;;;;;2.20;1.60;;;14.70;87.30;;;;;;4155256;28;20215;-71
2021/05/10 02:24:00;;;;;;;2.80;1.70;;;14.60;87.50;;;;;;4152031;28;20588;-71
2021/05/10 02:26:03;;;;;;;2.37;1.70;;;14.60;87.80;;;;;;4152636;28;20217;-72
2021/05/10 02:28:06;;;;;;;2.67;1.70;;;14.50;88.10;;;;;;4145877;28;20674;-71
2021/05/10 02:30:08;;;;;;;4.27;2.10;;;14.50;88.50;;;;;;4152716;28;20217;-70
2021/05/10 02:32:09;;;;;;;3.53;2.00;;;14.60;90.80;;;;;;4152356;28;20616;-71
2021/05/10 02:34:11;;;;;;;3.70;2.13;;;14.50;91.00;;;;;;4163382;28;20212;-72
2021/05/10 02:36:12;;;;;;;2.10;1.57;;;14.40;91.00;;;;;;4157000;28;20223;-72
2021/05/10 02:38:14;;;;;;;3.13;2.03;;;14.40;91.00;;;;;;4162075;28;20372;-71
2021/05/10 02:40:16;;;;;;;3.30;1.97;;;14.40;91.10;;;;;;4155179;28;20268;-72
2021/05/10 02:42:18;;;;;;;2.60;1.70;;;14.40;91.50;;;;;;4148105;28;20263;-71
2021/05/10 02:44:20;;;;;;;2.37;1.87;;;14.30;91.50;;;;;;4155785;28;20220;-72
2021/05/10 02:46:21;;;;;;;3.30;1.90;;;14.30;91.50;;;;;;4154272;28;20551;-72
2021/05/10 02:48:22;;;;;;;2.97;1.83;;;14.30;91.50;;;;;;4147716;28;20240;-71
2021/05/10 02:50:25;;;;;;;3.00;1.90;;;14.20;91.50;;;;;;4149120;28;20567;-71
2021/05/10 02:52:26;;;;;;;2.57;1.70;;;14.20;91.60;;;;;;4152092;28;20213;-71
2021/05/10 02:54:28;;;;;;;3.03;1.80;;;14.10;91.60;;;;;;4159566;28;20203;-72
2021/05/10 02:56:29;;;;;;;3.17;1.43;;;14.10;91.70;;;;;;4159497;28;20677;-71
2021/05/10 02:58:30;;;;;;;4.40;2.07;;;14.10;91.60;;;;;;4148950;28;20209;-71
2021/05/10 03:00:32;;;;;;;4.73;1.97;;;14.10;91.60;;;;;;4160052;28;20297;-72
2021/05/10 03:02:34;;;;;;;2.73;2.00;;;14.10;91.70;;;;;;4164760;28;20282;-73
2021/05/10 03:04:35;;;;;;;2.93;1.90;;;14.10;91.70;;;;;;4164992;28;20592;-72
2021/05/10 03:06:36;;;;;;;2.90;2.00;;;14.00;91.60;;;;;;4164575;28;20212;-72
2021/05/10 03:08:37;;;;;;;3.03;1.70;;;14.00;91.80;;;;;;4154017;28;20334;-73
2021/05/10 03:10:38;;;;;;;3.23;1.93;;;14.00;91.80;;;;;;4160572;28;20211;-74
2021/05/10 03:12:40;;;;;;;2.67;2.00;;;14.00;91.90;;;;;;4149272;28;20571;-72
2021/05/10 03:14:42;;;;;;;2.50;1.60;;;13.90;92.00;;;;;;4148856;28;20696;-73
2021/05/10 03:16:44;;;;;;;1.80;1.60;;;13.90;92.10;;;;;;4154347;28;20595;-73
2021/05/10 03:18:45;;;;;;;1.77;1.50;;;13.90;92.10;;;;;;4149033;28;20225;-73
2021/05/10 03:20:46;;;;;;;1.80;1.40;;;13.90;92.10;;;;;;4149566;28;20213;-72
2021/05/10 03:22:51;;;;;;;3.13;1.77;;;13.90;92.20;;;;;;4148685;28;20216;-73
2021/05/10 03:24:52;;;;;;;2.50;1.73;;;13.80;92.30;;;;;;4158565;28;20470;-72
2021/05/10 03:26:53;;;;;;;3.47;1.80;;;13.80;92.40;;;;;;4164376;28;20227;-73
2021/05/10 03:28:54;;;;;;;2.80;1.67;;;13.80;92.50;;;;;;4150102;28;20250;-72
2021/05/10 03:30:55;;;;;;;3.63;1.60;;;13.80;92.70;;;;;;4164663;28;20226;-73
2021/05/10 03:32:57;;;;;;;3.67;2.20;;;13.70;92.70;;;;;;4164679;28;20215;-72
2021/05/10 03:34:58;;;;;;;2.50;1.70;;;13.70;92.70;;;;;;4149138;28;20220;-72
2021/05/10 03:37:00;;;;;;;3.57;1.67;;;13.70;92.90;;;;;;4152033;28;20240;-73
2021/05/10 03:39:01;;;;;;;2.00;1.60;;;13.70;92.90;;;;;;4163352;28;20657;-73
2021/05/10 03:41:03;;;;;;;2.60;1.60;;;13.70;93.00;;;;;;4148380;28;20215;-74
2021/05/10 03:43:04;;;;;;;2.80;1.90;;;13.60;93.00;;;;;;4148700;28;20215;-73
2021/05/10 03:45:07;;;;;;;3.07;2.07;;;13.60;93.10;;;;;;4148975;28;20209;-73
2021/05/10 03:47:08;;;;;;;2.90;1.67;;;13.60;93.20;;;;;;4148070;28;20232;-73
2021/05/10 03:49:10;;;;;;;3.63;1.97;;;13.60;93.30;;;;;;4156196;28;20239;-73
2021/05/10 03:51:11;;;;;;;2.60;1.70;;;13.50;93.30;;;;;;4164450;28;20606;-72
2021/05/10 03:53:12;;;;;;;3.10;1.50;;;13.50;93.40;;;;;;4164389;28;20226;-73
2021/05/10 03:55:15;;;;;;;2.83;1.63;;;13.50;93.50;;;;;;4164066;28;20220;-72
2021/05/10 03:57:16;;;;;;;4.13;2.00;;;13.50;93.60;;;;;;4164467;28;20234;-74
2021/05/10 03:59:19;;;;;;;2.73;1.70;;;13.50;93.60;;;;;;4159140;28;20277;-73
2021/05/10 04:01:20;;;;;;;3.13;1.80;;;13.50;93.60;;;;;;4163871;28;20204;-73
2021/05/10 04:03:23;;;;;;;4.37;1.97;;;13.60;93.70;;;;;;4164487;28;20214;-72
2021/05/10 04:05:52;;;;;;;2.53;1.80;;;13.60;93.70;;;;;;4163807;28;20664;-73
2021/05/10 04:07:56;;;;;;;4.03;1.90;;;13.60;93.60;;;;;;4149974;28;20243;-72
2021/05/10 04:14:44;;;;;;;3.63;1.90;;;13.70;93.50;;;;;;4164172;28;20733;-73
2021/05/10 04:16:45;;;;;;;2.87;1.80;;;13.70;93.50;;;;;;4162046;28;20230;-72
2021/05/10 04:18:46;;;;;;;3.40;1.83;;;13.80;93.40;;;;;;4163296;28;20214;-73
2021/05/10 04:20:49;;;;;;;2.90;2.20;;;13.80;93.30;;;;;;4149212;28;20670;-72
2021/05/10 04:22:50;;;;;;;3.70;1.77;;;13.90;93.30;;;;;;4147913;28;20213;-73
2021/05/10 04:24:51;;;;;;;4.57;2.13;;;14.00;93.20;;;;;;4150873;28;20203;-73
2021/05/10 04:26:52;;;;;;;3.87;2.23;;;14.00;93.00;;;;;;4155810;28;20242;-73
2021/05/10 04:28:53;;;;;;;3.27;2.00;;;14.10;92.90;;;;;;4147717;28;20225;-73
2021/05/10 04:30:56;;;;;;;3.90;2.20;;;14.10;92.90;;;;;;4162588;28;20213;-72
2021/05/10 04:32:58;;;;;;;4.30;1.90;;;14.10;92.80;;;;;;4161005;28;20200;-72
2021/05/10 04:34:59;;;;;;;4.53;2.13;;;14.20;92.70;;;;;;4162014;28;20220;-73
2021/05/10 04:37:01;;;;;;;3.30;1.80;;;14.20;92.70;;;;;;4159916;28;20245;-73
2021/05/10 04:39:03;;;;;;;2.97;1.90;;;14.30;92.70;;;;;;4147551;28;20208;-72
2021/05/10 04:41:04;;;;;;;4.90;2.37;;;14.30;92.60;;;;;;4147180;28;20215;-73
2021/05/10 04:43:06;;;;;;;4.30;2.27;;;14.30;92.50;;;;;;4152618;28;20205;-73
2021/05/10 04:45:08;;;;;;;6.37;2.50;;;14.30;92.50;;;;;;4153376;28;20217;-73
2021/05/10 04:47:09;;;;;;;3.90;2.57;;;14.30;92.80;;;;;;4163693;28;20231;-73
2021/05/10 04:49:10;;;;;;;5.37;2.10;;;14.40;92.40;;;;;;4163756;28;20220;-72
2021/05/10 04:51:12;;;;;;;4.63;1.77;;;14.30;92.40;;;;;;4153512;28;20211;-72
2021/05/10 04:53:14;;;;;;;4.23;2.00;;;14.40;92.50;;;;;;4153413;28;20218;-72
2021/05/10 04:55:15;;;;;;;1.90;1.70;;;14.40;92.40;;;;;;4162846;28;20213;-72
2021/05/10 04:57:16;;;;;;;2.77;1.80;;;14.40;92.30;;;;;;4163443;28;20236;-71
2021/05/10 04:59:18;;;;;;;3.47;2.07;;;14.40;92.20;;;;;;4158369;28;20743;-71
2021/05/10 05:01:19;;;;;;;3.40;2.20;;;14.50;92.10;;;;;;4146862;28;20241;-71
2021/05/10 05:03:20;;;;;;;2.80;1.60;;;14.50;92.10;;;;;;4153857;28;20353;-72
2021/05/10 05:05:21;;;;;;;4.20;1.80;;;14.50;92.00;;;;;;4163425;28;20612;-72
2021/05/10 05:07:23;;;;;;;3.87;1.77;;;14.50;92.00;;;;;;4163165;28;20280;-72
2021/05/10 05:09:24;;;;;;;4.53;2.97;;;14.60;91.90;;;;;;4157873;28;20208;-72
2021/05/10 05:11:26;;;;;;;6.57;3.23;;;14.60;92.00;;;;;;4149785;28;20210;-71
2021/05/10 05:13:29;;;;;;;4.63;2.67;;;14.70;91.90;;;;;;4154536;28;20209;-71
2021/05/10 05:15:31;;;;;;;3.90;2.20;;;14.70;91.80;;;;;;4161269;28;20203;-71
2021/05/10 05:17:32;;;;;;;4.47;1.90;;;14.80;91.80;;;;;;4147303;28;20225;-72
2021/05/10 05:19:33;;;;;;;2.83;1.90;;;14.90;91.70;;;;;;4147249;28;20218;-72
2021/05/10 05:21:35;;;;;;;4.87;2.03;;;14.90;91.50;;;;;;4159248;28;20207;-72
2021/05/10 05:23:36;;;;;;;2.53;2.00;;;15.00;91.40;;;;;;4154823;28;20213;-71
2021/05/10 05:25:38;;;;;;;3.67;1.70;;;15.10;91.30;;;;;;4156523;28;20280;-72
2021/05/10 05:27:39;;;;;;;3.00;1.70;;;15.10;91.10;;;;;;4162597;28;20807;-72
2021/05/10 05:29:40;;;;;;;2.93;1.80;;;15.20;91.00;;;;;;4149122;28;20581;-72
2021/05/10 05:31:42;;;;;;;3.90;2.00;;;15.20;90.90;;;;;;4146993;28;20210;-72
2021/05/10 05:33:43;;;;;;;2.80;1.70;;;15.20;90.90;;;;;;4156268;28;20216;-72
2021/05/10 05:35:44;;;;;;;2.93;1.73;;;15.30;90.80;;;;;;4163640;28;20683;-72
2021/05/10 05:37:45;;;;;;;4.83;1.83;;;15.30;90.70;;;;;;4152769;28;20239;-72
2021/05/10 05:39:46;;;;;;;3.27;1.80;;;15.30;90.60;;;;;;4156557;28;20658;-72
2021/05/10 05:41:48;;;;;;;2.90;1.73;;;15.40;90.40;;;;;;4150310;28;20218;-72
2021/05/10 05:43:50;;;;;;;4.23;1.77;;;15.50;90.20;;;;;;4156814;28;20215;-72
2021/05/10 05:45:51;;;;;;;4.57;1.97;;;15.60;90.10;;;;;;4158980;28;20604;-73
2021/05/10 05:47:52;;;;;;;3.97;1.93;;;15.60;90.00;;;;;;4153715;28;20235;-72
2021/05/10 05:49:53;;;;;;;3.03;1.90;;;15.70;89.70;;;;;;4154333;28;20209;-72
2021/05/10 05:51:55;;;;;;;2.90;1.67;;;15.80;88.90;;;;;;4155654;28;20202;-72
2021/05/10 05:53:56;;;;;;;3.23;2.00;;;15.90;88.30;;;;;;4157514;28;20210;-72
2021/05/10 05:55:57;;;;;;;2.53;1.80;;;16.00;87.80;;;;;;4154295;28;20743;-72
2021/05/10 05:58:00;;;;;;;2.83;1.80;;;16.00;87.50;;;;;;4157079;28;20242;-72
2021/05/10 06:00:02;;;;;;;3.47;1.63;;;16.00;87.10;;;;;;4154278;28;20552;-73
2021/05/10 06:02:03;;;;;;;7.10;1.70;;;16.10;86.90;;;;;;4154957;28;20214;-72
2021/05/10 06:04:05;;;;;;;2.17;1.50;;;16.20;86.40;;;;;;4161839;28;20210;-74
2021/05/10 06:06:06;;;;;;;3.40;1.90;;;16.20;86.30;;;;;;4149681;28;20219;-72
2021/05/10 06:08:07;;;;;;;4.33;1.73;;;16.30;86.20;;;;;;4163760;28;20230;-72
2021/05/10 06:10:10;;;;;;;3.30;1.70;;;16.30;85.90;;;;;;4153380;28;20702;-72
2021/05/10 06:12:12;;;;;;;2.53;1.60;;;16.30;85.70;;;;;;4163987;28;20225;-72
2021/05/10 06:14:14;;;;;;;2.27;1.33;;;16.40;85.70;;;;;;4159463;28;20734;-76
2021/05/10 06:16:15;;;;;;;5.43;1.60;;;16.40;85.20;;;;;;4159822;28;20262;-73
2021/05/10 06:18:17;;;;;;;13.53;8.50;;;16.60;84.90;;;;;;4157465;28;20231;-75
2021/05/10 06:20:19;;;;;;;28.47;15.03;;;16.70;84.30;;;;;;4155304;28;20211;-73
2021/05/10 06:22:20;;;;;;;12.07;7.67;;;16.80;83.30;;;;;;4158691;28;20211;-73
2021/05/10 06:24:22;;;;;;;5.50;3.17;;;16.90;82.30;;;;;;4144007;28;20228;-73
2021/05/10 06:26:23;;;;;;;3.50;2.53;;;17.10;81.60;;;;;;4151444;28;20227;-73
2021/05/10 06:28:24;;;;;;;4.23;1.97;;;17.20;81.10;;;;;;4156257;28;20236;-73
2021/05/10 06:30:26;;;;;;;2.67;1.77;;;17.30;80.50;;;;;;4152946;28;20207;-73
2021/05/10 06:32:27;;;;;;;4.57;2.00;;;17.40;79.40;;;;;;4154729;28;20215;-73
2021/05/10 06:34:28;;;;;;;3.53;1.70;;;17.50;78.00;;;;;;4154686;28;20215;-73
2021/05/10 06:36:30;;;;;;;3.43;1.50;;;17.60;77.70;;;;;;4154791;28;20214;-73
2021/05/10 06:38:33;;;;;;;3.07;1.50;;;17.70;76.80;;;;;;4153268;28;20240;-73
2021/05/10 06:40:35;;;;;;;3.40;1.60;;;17.70;76.30;;;;;;4158978;28;20219;-73
2021/05/10 06:42:36;;;;;;;2.27;1.50;;;17.80;76.20;;;;;;4147799;28;20220;-73
2021/05/10 06:44:37;;;;;;;2.33;1.40;;;17.90;75.30;;;;;;4147298;28;20602;-73
2021/05/10 06:46:39;;;;;;;4.77;1.67;;;17.90;75.20;;;;;;4147906;28;20216;-73
2021/05/10 06:48:40;;;;;;;1.60;1.40;;;17.90;74.90;;;;;;4152857;28;20228;-73
2021/05/10 06:50:42;;;;;;;2.60;1.77;;;18.00;74.80;;;;;;4154489;28;20238;-73
2021/05/10 06:52:43;;;;;;;5.50;2.30;;;18.00;74.60;;;;;;4156025;28;20717;-72
2021/05/10 06:54:44;;;;;;;14.07;8.67;;;18.00;74.40;;;;;;4154691;28;20220;-73
2021/05/10 06:56:45;;;;;;;25.23;14.37;;;18.10;74.10;;;;;;4159316;28;20235;-73
2021/05/10 06:58:46;;;;;;;8.17;3.80;;;18.10;73.60;;;;;;4157554;28;20216;-73
2021/05/10 07:00:51;;;;;;;6.47;2.50;;;18.20;72.30;;;;;;4150239;28;20210;-73
2021/05/10 07:02:53;;;;;;;3.73;1.87;;;18.20;71.50;;;;;;4154543;28;20223;-73
2021/05/10 07:04:54;;;;;;;6.40;2.10;;;18.30;71.10;;;;;;4154636;28;20210;-73
2021/05/10 07:06:56;;;;;;;6.03;1.83;;;18.30;70.80;;;;;;4152621;28;20238;-73
2021/05/10 07:08:57;;;;;;;4.70;1.70;;;18.30;70.60;;;;;;4154266;28;20828;-72
2021/05/10 07:10:58;;;;;;;3.63;1.40;;;18.30;70.60;;;;;;4152941;28;20610;-72
2021/05/10 07:12:59;;;;;;;2.83;1.80;;;18.40;70.40;;;;;;4150820;28;20216;-73
2021/05/10 07:15:01;;;;;;;4.50;1.93;;;18.40;70.30;;;;;;4158808;28;20269;-73
2021/05/10 07:17:02;;;;;;;3.73;1.63;;;18.40;69.70;;;;;;4153811;28;20608;-73
2021/05/10 07:19:04;;;;;;;4.20;1.87;;;18.50;69.60;;;;;;4153854;28;20272;-73
2021/05/10 07:21:05;;;;;;;3.00;1.70;;;18.50;69.50;;;;;;4145792;28;20237;-73
2021/05/10 07:23:07;;;;;;;4.27;1.50;;;18.60;68.40;;;;;;4147151;28;20215;-73
2021/05/10 07:25:09;;;;;;;1.93;1.50;;;18.70;67.80;;;;;;4149837;28;20661;-73
2021/05/10 07:27:10;;;;;;;2.07;1.70;;;18.80;67.20;;;;;;4147717;28;20239;-71
2021/05/10 07:29:11;;;;;;;3.73;1.70;;;18.80;66.90;;;;;;4145854;28;20236;-72
2021/05/10 07:31:12;;;;;;;4.20;1.67;;;18.90;66.90;;;;;;4145032;28;20285;-74
2021/05/10 07:33:14;;;;;;;4.43;1.87;;;19.00;66.40;;;;;;4151019;28;20218;-72
2021/05/10 07:35:16;;;;;;;3.40;1.50;;;19.10;66.40;;;;;;4160944;28;20214;-72
2021/05/10 07:37:17;;;;;;;6.57;1.70;;;19.20;66.80;;;;;;4153116;28;20245;-72
2021/05/10 07:39:19;;;;;;;2.90;1.63;;;19.30;66.80;;;;;;4158617;28;20298;-73
2021/05/10 07:41:20;;;;;;;3.67;1.60;;;19.40;66.50;;;;;;4153829;28;20219;-73
2021/05/10 07:43:22;;;;;;;8.67;1.80;;;19.50;66.50;;;;;;4148581;28;20208;-73
2021/05/10 07:45:23;;;;;;;5.90;3.00;;;19.60;66.50;;;;;;4153054;28;20218;-76
2021/05/10 07:47:24;;;;;;;8.90;4.60;;;19.70;65.90;;;;;;4156639;28;20232;-74
2021/05/10 07:49:26;;;;;;;6.83;3.40;;;19.80;65.40;;;;;;4153567;28;20224;-74
2021/05/10 07:51:28;;;;;;;3.63;2.20;;;19.80;65.50;;;;;;4146423;28;20239;-73
2021/05/10 07:53:29;;;;;;;3.83;1.93;;;19.90;65.40;;;;;;4150123;28;20215;-75
2021/05/10 07:55:30;;;;;;;2.67;1.80;;;20.00;65.50;;;;;;4145524;28;20208;-71
2021/05/10 07:57:32;;;;;;;5.97;1.93;;;20.10;65.30;;;;;;4150372;28;20234;-72
2021/05/10 07:59:33;;;;;;;5.57;1.90;;;20.10;64.80;;;;;;4157891;28;20225;-73
2021/05/10 08:01:34;;;;;;;1.77;1.40;;;20.20;64.60;;;;;;4161452;28;20210;-73
2021/05/10 08:03:36;;;;;;;2.27;1.67;;;20.30;64.40;;;;;;4152987;28;20225;-73
2021/05/10 08:05:39;;;;;;;2.30;1.50;;;20.40;64.00;;;;;;4151125;28;20213;-74
2021/05/10 08:07:41;;;;;;;2.13;1.40;;;20.50;63.90;;;;;;4153166;28;20711;-73
2021/05/10 08:09:43;;;;;;;5.13;1.70;;;20.60;63.40;;;;;;4156570;28;20229;-73
2021/05/10 08:11:44;;;;;;;2.80;1.70;;;20.70;63.00;;;;;;4153442;28;20974;-73
2021/05/10 08:13:45;;;;;;;2.67;1.60;;;20.70;62.10;;;;;;4152840;28;20293;-73
2021/05/10 08:15:47;;;;;;;4.07;1.90;;;20.80;62.30;;;;;;4151881;28;20234;-73
2021/05/10 08:17:49;;;;;;;2.37;1.60;;;20.80;62.30;;;;;;4156358;28;20227;-73
2021/05/10 08:19:50;;;;;;;6.10;2.00;;;20.90;62.50;;;;;;4149922;28;20273;-73
2021/05/10 08:21:52;;;;;;;3.93;1.67;;;21.00;62.30;;;;;;4145088;28;20269;-73
2021/05/10 08:23:54;;;;;;;5.37;1.90;;;21.00;62.00;;;;;;4153501;28;20238;-73
2021/05/10 08:25:55;;;;;;;2.40;1.70;;;21.10;62.00;;;;;;4151278;28;20582;-73
2021/05/10 08:27:56;;;;;;;2.90;1.80;;;21.20;61.80;;;;;;4157320;28;20284;-73
2021/05/10 08:29:57;;;;;;;4.87;1.90;;;21.20;61.50;;;;;;4152188;28;20586;-73
2021/05/10 08:31:59;;;;;;;4.93;1.93;;;21.40;60.40;;;;;;4145646;28;20223;-74
2021/05/10 08:34:00;;;;;;;3.30;1.80;;;21.50;60.40;;;;;;4149690;28;20213;-74
2021/05/10 08:36:01;;;;;;;2.60;1.70;;;21.60;60.40;;;;;;4153782;28;20264;-73
2021/05/10 08:38:03;;;;;;;6.33;1.60;;;21.70;60.10;;;;;;4149730;28;20236;-73
2021/05/10 08:40:07;;;;;;;7.57;2.00;;;21.80;58.10;;;;;;4153627;28;20211;-73
2021/05/10 08:42:08;;;;;;;5.13;1.67;;;22.00;56.70;;;;;;4151014;28;20678;-74
2021/05/10 08:44:11;;;;;;;3.43;1.60;;;22.10;56.40;;;;;;4144681;28;20225;-73
2021/05/10 08:46:12;;;;;;;12.77;7.80;;;22.20;56.60;;;;;;4154177;28;20729;-74
2021/05/10 08:48:14;;;;;;;18.50;11.50;;;22.30;57.00;;;;;;4150749;28;20245;-76
2021/05/10 08:50:16;;;;;;;4.60;2.83;;;22.50;56.50;;;;;;4144556;28;20219;-73
2021/05/10 08:52:17;;;;;;;2.57;1.80;;;22.60;55.40;;;;;;4151512;28;20208;-74
2021/05/10 08:54:21;;;;;;;8.17;1.60;;;22.70;55.00;;;;;;4149268;28;20207;-73
2021/05/10 08:56:23;;;;;;;5.77;1.80;;;22.90;53.30;;;;;;4146062;28;20614;-73
2021/05/10 08:58:24;;;;;;;3.60;1.77;;;23.00;53.20;;;;;;4150385;28;20234;-73
2021/05/10 09:00:26;;;;;;;3.67;1.80;;;23.20;52.60;;;;;;4159033;28;20226;-73
2021/05/10 09:02:31;;;;;;;2.67;1.70;;;23.30;51.90;;;;;;4153087;28;20246;-73
2021/05/10 09:04:34;;;;;;;8.57;1.60;;;23.50;52.20;;;;;;4158510;28;20294;-73
2021/05/10 09:06:35;;;;;;;5.80;1.53;;;23.60;52.10;;;;;;4159676;28;20215;-73
2021/05/10 09:08:40;;;;;;;1.97;1.33;;;23.80;50.90;;;;;;4148687;28;20230;-73
2021/05/10 09:10:42;;;;;;;2.13;1.53;;;23.90;49.10;;;;;;4152437;28;20203;-73
2021/05/10 09:12:46;;;;;;;5.30;1.50;;;24.10;48.60;;;;;;4153018;28;20719;-73
2021/05/10 09:14:47;;;;;;;3.00;1.57;;;24.10;47.40;;;;;;4152602;28;20245;-73
2021/05/10 09:16:53;;;;;;;2.90;1.40;;;24.30;46.30;;;;;;4152074;28;20230;-73
2021/05/10 09:18:56;;;;;;;2.93;1.60;;;24.40;46.30;;;;;;4152016;28;20305;-73
2021/05/10 09:21:09;;;;;;;2.53;1.43;;;24.50;45.20;;;;;;4152857;28;20595;-73
2021/05/10 09:23:12;;;;;;;4.97;1.40;;;24.50;45.40;;;;;;4153005;28;20306;-76
2021/05/10 09:25:14;;;;;;;1.97;1.50;;;24.60;45.40;;;;;;4154686;28;20631;-74
2021/05/10 09:27:22;;;;;;;4.70;1.80;;;24.60;45.80;;;;;;4154858;28;20227;-74
2021/05/10 09:29:27;;;;;;;3.73;1.90;;;24.60;46.20;;;;;;4150049;28;21072;-73
2021/05/10 09:31:29;;;;;;;3.90;1.60;;;24.60;46.20;;;;;;4146355;28;20573;-73
2021/05/10 09:33:31;;;;;;;2.97;1.50;;;24.70;46.00;;;;;;4158234;28;20239;-72
2021/05/10 09:35:32;;;;;;;2.10;1.40;;;24.70;45.80;;;;;;4154699;28;20632;-72
2021/05/10 09:37:33;;;;;;;2.50;1.53;;;24.80;45.50;;;;;;4159658;28;20656;-72
2021/05/10 09:39:37;;;;;;;2.93;1.60;;;24.80;45.70;;;;;;4155497;28;20199;-71
2021/05/10 09:41:57;;;;;;;2.47;1.60;;;24.80;45.70;;;;;;4158262;28;20595;-73
2021/05/10 09:44:00;;;;;;;3.00;1.90;;;25.00;45.70;;;;;;4147758;28;20633;-73
2021/05/10 09:46:06;;;;;;;4.53;1.60;;;25.10;45.60;;;;;;4162275;28;20214;-73
2021/05/10 09:48:10;;;;;;;2.23;1.43;;;25.30;44.30;;;;;;4164087;28;20753;-71
2021/05/10 09:50:11;;;;;;;3.73;1.80;;;25.40;44.20;;;;;;4163723;28;20314;-72
2021/05/10 09:52:19;;;;;;;4.13;1.83;;;25.60;44.10;;;;;;4159676;28;20265;-74
2021/05/10 09:54:21;;;;;;;2.80;1.40;;;25.80;43.70;;;;;;4159707;28;20284;-75
2021/05/10 09:56:28;;;;;;;4.17;1.50;;;26.00;43.30;;;;;;4164082;28;20238;-75
2021/05/10 09:58:41;;;;;;;5.77;1.70;;;26.10;43.10;;;;;;4163871;28;20210;-74
2021/05/10 10:00:43;;;;;;;3.70;1.70;;;26.40;42.90;;;;;;4146950;28;20250;-74
2021/05/10 10:02:45;;;;;;;2.37;1.60;;;26.60;42.40;;;;;;4147563;28;20208;-73
2021/05/10 10:04:50;;;;;;;3.50;1.40;;;26.70;41.20;;;;;;4159188;28;20207;-74
2021/05/10 10:06:52;;;;;;;3.57;1.67;;;26.80;40.70;;;;;;4163781;28;20289;-77
2021/05/10 10:08:53;;;;;;;6.13;1.90;;;27.00;40.20;;;;;;4154702;28;20235;-74
2021/05/10 10:10:55;;;;;;;5.67;2.70;;;27.10;39.70;;;;;;4162895;28;20326;-77
2021/05/10 10:12:56;;;;;;;4.47;1.97;;;27.20;39.40;;;;;;4164425;28;20214;-76
2021/05/10 10:14:58;;;;;;;4.13;1.60;;;27.30;39.30;;;;;;4161979;28;20207;-80
2021/05/10 10:16:59;;;;;;;2.47;1.60;;;27.40;39.10;;;;;;4155854;28;20819;-74
2021/05/10 10:19:03;;;;;;;3.90;1.40;;;27.40;39.00;;;;;;4158353;28;20202;-74
2021/05/10 10:21:06;;;;;;;2.47;1.50;;;27.30;38.50;;;;;;4152135;28;20207;-75
2021/05/10 10:23:08;;;;;;;3.90;1.70;;;27.40;38.50;;;;;;4150135;28;20220;-75
2021/05/10 10:25:10;;;;;;;6.33;1.87;;;27.30;38.60;;;;;;4157733;28;20217;-76
2021/05/10 10:27:13;;;;;;;1.93;1.50;;;27.30;38.60;;;;;;4156606;28;20228;-74
2021/05/10 10:29:15;;;;;;;10.23;1.87;;;27.20;38.90;;;;;;4156842;28;20234;-73
2021/05/10 10:31:20;;;;;;;2.50;1.40;;;27.20;39.20;;;;;;4153257;28;20207;-74
2021/05/10 10:33:34;;;;;;;2.40;1.33;;;27.20;39.50;;;;;;4151995;28;20215;-76
2021/05/10 10:35:41;;;;;;;2.33;1.67;;;27.10;39.90;;;;;;4156836;28;20207;-76
2021/05/10 10:37:42;;;;;;;3.83;1.40;;;27.00;39.90;;;;;;4156504;28;20242;-77